sensor_id;sensor_type;location;lat;lon;timestamp;pressure;altitude;pressure_sealevel;temperature;humidity
52105;BME280;38103;42.776;23.112;2022-08-19T00:00:07;93761.41;;;21.00;55.87
52105;BME280;38103;42.776;23.112;2022-08-19T00:02:34;93758.34;;;21.16;54.98
52105;BME280;38103;42.776;23.112;2022-08-19T00:05:00;93768.88;;;21.26;56.28
52105;BME280;38103;42.776;23.112;2022-08-19T00:07:25;93768.38;;;21.24;55.96
52105;BME280;38103;42.776;23.112;2022-08-19T00:09:51;93768.38;;;21.24;56.29
52105;BME280;38103;42.776;23.112;2022-08-19T00:12:16;93771.06;;;21.24;55.10
52105;BME280;38103;42.776;23.112;2022-08-19T00:14:42;93772.97;;;21.24;56.04
52105;BME280;38103;42.776;23.112;2022-08-19T00:17:08;93720.47;;;20.80;55.10
52105;BME280;38103;42.776;23.112;2022-08-19T00:19:35;93778.75;;;20.94;55.39
52105;BME280;38103;42.776;23.112;2022-08-19T00:22:01;93744.66;;;20.57;55.77
52105;BME280;38103;42.776;23.112;2022-08-19T00:24:31;93789.06;;;20.40;57.21
52105;BME280;38103;42.776;23.112;2022-08-19T00:26:57;93785.91;;;20.10;58.36
52105;BME280;38103;42.776;23.112;2022-08-19T00:29:24;93769.56;;;19.92;58.68
52105;BME280;38103;42.776;23.112;2022-08-19T00:31:51;93771.66;;;19.95;58.60
52105;BME280;38103;42.776;23.112;2022-08-19T00:34:21;93770.47;;;20.02;58.62
52105;BME280;38103;42.776;23.112;2022-08-19T00:36:47;93765.59;;;20.04;60.73
52105;BME280;38103;42.776;23.112;2022-08-19T00:39:14;93765.41;;;20.00;60.63
52105;BME280;38103;42.776;23.112;2022-08-19T00:41:41;93767.00;;;19.87;61.57
52105;BME280;38103;42.776;23.112;2022-08-19T00:46:35;93767.41;;;19.94;61.20
52105;BME280;38103;42.776;23.112;2022-08-19T00:49:06;93775.16;;;19.96;60.74
52105;BME280;38103;42.776;23.112;2022-08-19T00:51:34;93765.00;;;19.93;60.27
52105;BME280;38103;42.776;23.112;2022-08-19T00:54:02;93765.41;;;20.00;62.00
52105;BME280;38103;42.776;23.112;2022-08-19T00:56:27;93765.22;;;19.96;61.47
52105;BME280;38103;42.776;23.112;2022-08-19T00:58:55;93764.31;;;19.87;61.44
52105;BME280;38103;42.776;23.112;2022-08-19T01:01:21;93759.25;;;19.85;61.78
52105;BME280;38103;42.776;23.112;2022-08-19T01:03:46;93765.41;;;19.58;61.04
52105;BME280;38103;42.776;23.112;2022-08-19T01:06:13;93769.56;;;19.50;61.15
52105;BME280;38103;42.776;23.112;2022-08-19T01:08:39;93767.56;;;19.41;61.60
52105;BME280;38103;42.776;23.112;2022-08-19T01:11:05;93764.59;;;19.43;62.64
52105;BME280;38103;42.776;23.112;2022-08-19T01:13:33;93767.78;;;19.45;62.13
52105;BME280;38103;42.776;23.112;2022-08-19T01:16:05;93760.53;;;19.60;63.08
52105;BME280;38103;42.776;23.112;2022-08-19T01:18:32;93761.03;;;19.62;62.21
52105;BME280;38103;42.776;23.112;2022-08-19T01:21:05;93758.25;;;19.67;63.32
52105;BME280;38103;42.776;23.112;2022-08-19T01:23:32;93759.25;;;19.71;62.74
52105;BME280;38103;42.776;23.112;2022-08-19T01:26:15;93739.38;;;19.44;62.18
52105;BME280;38103;42.776;23.112;2022-08-19T01:28:42;93758.22;;;19.39;62.21
52105;BME280;38103;42.776;23.112;2022-08-19T01:31:12;93761.63;;;19.45;61.51
52105;BME280;38103;42.776;23.112;2022-08-19T01:33:38;93755.84;;;19.51;62.24
52105;BME280;38103;42.776;23.112;2022-08-19T01:36:09;93762.41;;;19.45;60.45
52105;BME280;38103;42.776;23.112;2022-08-19T01:38:37;93758.47;;;19.23;62.58
52105;BME280;38103;42.776;23.112;2022-08-19T01:41:03;93762.28;;;19.03;61.98
52105;BME280;38103;42.776;23.112;2022-08-19T01:43:28;93773.56;;;18.99;62.15
52105;BME280;38103;42.776;23.112;2022-08-19T01:45:54;93770.69;;;18.96;63.79
52105;BME280;38103;42.776;23.112;2022-08-19T01:48:19;93782.16;;;19.16;62.73
52105;BME280;38103;42.776;23.112;2022-08-19T01:50:45;93774.78;;;19.27;63.08
52105;BME280;38103;42.776;23.112;2022-08-19T01:53:11;93743.03;;;19.15;61.93
52105;BME280;38103;42.776;23.112;2022-08-19T01:55:39;93731.25;;;19.16;61.42
52105;BME280;38103;42.776;23.112;2022-08-19T01:58:11;93752.44;;;19.31;61.11
52105;BME280;38103;42.776;23.112;2022-08-19T02:00:37;93774.31;;;19.39;61.27
52105;BME280;38103;42.776;23.112;2022-08-19T02:03:03;93759.81;;;19.40;60.64
52105;BME280;38103;42.776;23.112;2022-08-19T02:05:29;93763.19;;;19.46;60.93
52105;BME280;38103;42.776;23.112;2022-08-19T02:07:56;93760.81;;;19.44;62.21
52105;BME280;38103;42.776;23.112;2022-08-19T02:10:22;93755.53;;;19.39;61.65
52105;BME280;38103;42.776;23.112;2022-08-19T02:12:48;93752.84;;;19.39;62.26
52105;BME280;38103;42.776;23.112;2022-08-19T02:15:15;93766.94;;;19.30;62.92
52105;BME280;38103;42.776;23.112;2022-08-19T02:17:40;93760.00;;;19.29;62.83
52105;BME280;38103;42.776;23.112;2022-08-19T02:20:06;93768.13;;;19.24;62.53
52105;BME280;38103;42.776;23.112;2022-08-19T02:22:32;93761.69;;;19.06;63.24
52105;BME280;38103;42.776;23.112;2022-08-19T02:24:57;93767.84;;;19.06;62.68
52105;BME280;38103;42.776;23.112;2022-08-19T02:27:23;93768.38;;;18.89;62.91
52105;BME280;38103;42.776;23.112;2022-08-19T02:29:50;93773.94;;;18.93;63.97
52105;BME280;38103;42.776;23.112;2022-08-19T02:32:17;93770.69;;;18.96;64.60
52105;BME280;38103;42.776;23.112;2022-08-19T02:34:44;93674.09;;;18.20;64.14
52105;BME280;38103;42.776;23.112;2022-08-19T02:37:10;93756.53;;;18.76;64.24
52105;BME280;38103;42.776;23.112;2022-08-19T02:39:56;93665.84;;;18.16;63.92
52105;BME280;38103;42.776;23.112;2022-08-19T02:42:21;93750.16;;;18.72;64.18
52105;BME280;38103;42.776;23.112;2022-08-19T02:44:47;93655.84;;;18.03;64.87
52105;BME280;38103;42.776;23.112;2022-08-19T02:47:12;93756.16;;;18.63;64.84
52105;BME280;38103;42.776;23.112;2022-08-19T02:49:39;93753.06;;;18.56;65.48
52105;BME280;38103;42.776;23.112;2022-08-19T02:52:05;93752.34;;;18.50;65.84
52105;BME280;38103;42.776;23.112;2022-08-19T02:54:30;93758.06;;;18.43;66.56
52105;BME280;38103;42.776;23.112;2022-08-19T02:56:55;93763.47;;;18.38;66.60
52105;BME280;38103;42.776;23.112;2022-08-19T02:59:21;93766.38;;;18.23;65.88
52105;BME280;38103;42.776;23.112;2022-08-19T03:01:46;93782.13;;;18.00;65.88
52105;BME280;38103;42.776;23.112;2022-08-19T03:04:13;93773.03;;;18.01;66.14
52105;BME280;38103;42.776;23.112;2022-08-19T03:06:41;93782.25;;;17.89;66.66
52105;BME280;38103;42.776;23.112;2022-08-19T03:09:07;93778.63;;;17.80;66.99
52105;BME280;38103;42.776;23.112;2022-08-19T03:11:33;93767.69;;;17.76;67.35
52105;BME280;38103;42.776;23.112;2022-08-19T03:13:59;93779.41;;;18.05;68.84
52105;BME280;38103;42.776;23.112;2022-08-19T03:16:28;93770.41;;;18.20;68.83
52105;BME280;38103;42.776;23.112;2022-08-19T03:18:56;93702.94;;;17.79;67.62
52105;BME280;38103;42.776;23.112;2022-08-19T03:21:26;93776.94;;;18.33;66.47
52105;BME280;38103;42.776;23.112;2022-08-19T03:23:57;93762.31;;;18.25;67.00
52105;BME280;38103;42.776;23.112;2022-08-19T03:26:23;93769.47;;;18.30;66.58
52105;BME280;38103;42.776;23.112;2022-08-19T03:28:49;93754.03;;;18.27;67.87
52105;BME280;38103;42.776;23.112;2022-08-19T03:31:17;93776.28;;;18.41;67.04
52105;BME280;38103;42.776;23.112;2022-08-19T03:33:43;93776.50;;;18.26;66.79
52105;BME280;38103;42.776;23.112;2022-08-19T03:36:11;93780.44;;;18.09;68.40
52105;BME280;38103;42.776;23.112;2022-08-19T03:38:40;93776.91;;;17.64;68.09
52105;BME280;38103;42.776;23.112;2022-08-19T03:41:08;93783.63;;;17.62;68.70
52105;BME280;38103;42.776;23.112;2022-08-19T03:43:36;93784.06;;;17.69;69.01
52105;BME280;38103;42.776;23.112;2022-08-19T03:46:08;93784.06;;;17.69;69.20
52105;BME280;38103;42.776;23.112;2022-08-19T03:48:35;93712.53;;;17.36;68.69
52105;BME280;38103;42.776;23.112;2022-08-19T03:51:02;93791.44;;;17.83;68.67
52105;BME280;38103;42.776;23.112;2022-08-19T03:53:29;93790.31;;;17.84;69.09
52105;BME280;38103;42.776;23.112;2022-08-19T03:55:55;93741.66;;;17.62;67.82
52105;BME280;38103;42.776;23.112;2022-08-19T03:58:22;93785.69;;;18.14;69.09
52105;BME280;38103;42.776;23.112;2022-08-19T04:00:48;93741.06;;;17.90;68.42
52105;BME280;38103;42.776;23.112;2022-08-19T04:03:14;93799.44;;;18.32;67.45
52105;BME280;38103;42.776;23.112;2022-08-19T04:05:40;93803.19;;;18.31;67.11
52105;BME280;38103;42.776;23.112;2022-08-19T04:08:05;93800.06;;;18.24;67.30
52105;BME280;38103;42.776;23.112;2022-08-19T04:10:40;93783.94;;;18.29;67.83
52105;BME280;38103;42.776;23.112;2022-08-19T04:13:07;93804.06;;;18.46;67.30
52105;BME280;38103;42.776;23.112;2022-08-19T04:15:39;93809.38;;;18.70;68.24
52105;BME280;38103;42.776;23.112;2022-08-19T04:18:07;93804.06;;;18.84;68.20
52105;BME280;38103;42.776;23.112;2022-08-19T04:20:39;93803.00;;;18.85;67.01
52105;BME280;38103;42.776;23.112;2022-08-19T04:23:04;93779.88;;;18.90;68.29
52105;BME280;38103;42.776;23.112;2022-08-19T04:25:38;93803.97;;;19.28;66.72
52105;BME280;38103;42.776;23.112;2022-08-19T04:28:05;93803.72;;;19.44;67.35
52105;BME280;38103;42.776;23.112;2022-08-19T04:30:31;93795.97;;;19.57;66.73
52105;BME280;38103;42.776;23.112;2022-08-19T04:33:02;93800.97;;;19.77;66.39
52105;BME280;38103;42.776;23.112;2022-08-19T04:35:38;93800.81;;;20.02;67.70
52105;BME280;38103;42.776;23.112;2022-08-19T04:38:04;93802.28;;;20.37;65.67
52105;BME280;38103;42.776;23.112;2022-08-19T04:40:30;93805.34;;;20.58;63.93
52105;BME280;38103;42.776;23.112;2022-08-19T04:43:13;93808.31;;;20.94;62.21
52105;BME280;38103;42.776;23.112;2022-08-19T04:45:39;93787.69;;;21.03;63.49
52105;BME280;38103;42.776;23.112;2022-08-19T04:48:05;93805.84;;;21.43;64.15
52105;BME280;38103;42.776;23.112;2022-08-19T04:50:30;93805.47;;;21.68;60.63
52105;BME280;38103;42.776;23.112;2022-08-19T04:52:56;93804.84;;;21.94;61.68
52105;BME280;38103;42.776;23.112;2022-08-19T04:55:21;93808.84;;;22.15;59.53
52105;BME280;38103;42.776;23.112;2022-08-19T04:57:47;93812.22;;;22.29;57.65
52105;BME280;38103;42.776;23.112;2022-08-19T05:00:12;93808.00;;;22.55;56.91
52105;BME280;38103;42.776;23.112;2022-08-19T05:02:38;93802.03;;;22.76;55.06
52105;BME280;38103;42.776;23.112;2022-08-19T05:05:04;93809.94;;;22.99;54.98
52105;BME280;38103;42.776;23.112;2022-08-19T05:07:31;93811.22;;;23.19;54.84
52105;BME280;38103;42.776;23.112;2022-08-19T05:09:56;93804.84;;;23.42;55.02
52105;BME280;38103;42.776;23.112;2022-08-19T05:12:22;93808.34;;;23.60;54.05
52105;BME280;38103;42.776;23.112;2022-08-19T05:14:47;93810.81;;;23.74;54.92
52105;BME280;38103;42.776;23.112;2022-08-19T05:17:14;93819.19;;;23.91;53.16
52105;BME280;38103;42.776;23.112;2022-08-19T05:19:40;93815.63;;;24.08;52.24
52105;BME280;38103;42.776;23.112;2022-08-19T05:22:23;93816.97;;;24.32;52.83
52105;BME280;38103;42.776;23.112;2022-08-19T05:25:02;93814.34;;;24.44;52.26
52105;BME280;38103;42.776;23.112;2022-08-19T05:27:27;93794.34;;;24.46;52.78
52105;BME280;38103;42.776;23.112;2022-08-19T05:29:53;93819.50;;;24.59;53.21
52105;BME280;38103;42.776;23.112;2022-08-19T05:32:18;93821.25;;;24.63;53.54
52105;BME280;38103;42.776;23.112;2022-08-19T05:34:44;93811.94;;;24.52;53.89
52105;BME280;38103;42.776;23.112;2022-08-19T05:37:09;93822.75;;;24.52;53.82
52105;BME280;38103;42.776;23.112;2022-08-19T05:39:36;93820.06;;;24.73;53.07
52105;BME280;38103;42.776;23.112;2022-08-19T05:42:08;93813.63;;;25.08;51.09
52105;BME280;38103;42.776;23.112;2022-08-19T05:44:38;93814.09;;;25.44;51.53
52105;BME280;38103;42.776;23.112;2022-08-19T05:47:06;93819.47;;;25.66;49.62
52105;BME280;38103;42.776;23.112;2022-08-19T05:49:34;93816.38;;;25.89;49.40
52105;BME280;38103;42.776;23.112;2022-08-19T05:52:05;93792.41;;;25.66;46.94
52105;BME280;38103;42.776;23.112;2022-08-19T05:54:32;93812.34;;;26.08;47.44
52105;BME280;38103;42.776;23.112;2022-08-19T05:56:57;93738.50;;;25.98;48.62
52105;BME280;38103;42.776;23.112;2022-08-19T05:59:23;93811.66;;;26.23;47.29
52105;BME280;38103;42.776;23.112;2022-08-19T06:01:50;93817.34;;;26.43;47.42
52105;BME280;38103;42.776;23.112;2022-08-19T06:04:19;93808.06;;;26.44;45.79
52105;BME280;38103;42.776;23.112;2022-08-19T06:06:46;93814.81;;;26.38;48.74
52105;BME280;38103;42.776;23.112;2022-08-19T06:09:12;93825.78;;;26.67;46.11
52105;BME280;38103;42.776;23.112;2022-08-19T06:11:58;93813.69;;;26.52;46.38
52105;BME280;38103;42.776;23.112;2022-08-19T06:14:28;93818.34;;;26.51;47.97
52105;BME280;38103;42.776;23.112;2022-08-19T06:16:55;93819.78;;;26.74;45.62
52105;BME280;38103;42.776;23.112;2022-08-19T06:19:22;93818.22;;;26.48;46.36
52105;BME280;38103;42.776;23.112;2022-08-19T06:21:50;93825.53;;;26.22;47.77
52105;BME280;38103;42.776;23.112;2022-08-19T06:24:22;93819.69;;;26.20;48.60
52105;BME280;38103;42.776;23.112;2022-08-19T06:26:52;93813.81;;;26.05;50.15
52105;BME280;38103;42.776;23.112;2022-08-19T06:29:19;93811.41;;;26.29;48.20
52105;BME280;38103;42.776;23.112;2022-08-19T06:31:47;93819.78;;;25.98;48.95
52105;BME280;38103;42.776;23.112;2022-08-19T06:34:15;93786.94;;;25.41;49.37
52105;BME280;38103;42.776;23.112;2022-08-19T06:36:44;93823.94;;;25.83;49.76
52105;BME280;38103;42.776;23.112;2022-08-19T06:39:15;93827.69;;;26.04;50.25
52105;BME280;38103;42.776;23.112;2022-08-19T06:41:43;93829.69;;;25.94;49.88
52105;BME280;38103;42.776;23.112;2022-08-19T06:44:09;93827.00;;;26.07;49.63
52105;BME280;38103;42.776;23.112;2022-08-19T06:46:36;93837.81;;;25.82;49.92
52105;BME280;38103;42.776;23.112;2022-08-19T06:49:02;93826.44;;;25.67;49.77
52105;BME280;38103;42.776;23.112;2022-08-19T06:51:28;93834.13;;;26.11;51.13
52105;BME280;38103;42.776;23.112;2022-08-19T06:53:55;93812.53;;;25.90;49.53
52105;BME280;38103;42.776;23.112;2022-08-19T06:56:23;93830.84;;;26.06;48.71
52105;BME280;38103;42.776;23.112;2022-08-19T06:58:50;93812.81;;;26.48;48.22
52105;BME280;38103;42.776;23.112;2022-08-19T07:01:18;93832.44;;;26.57;47.58
52105;BME280;38103;42.776;23.112;2022-08-19T07:03:44;93828.16;;;26.69;48.76
52105;BME280;38103;42.776;23.112;2022-08-19T07:06:12;93827.03;;;26.70;48.04
52105;BME280;38103;42.776;23.112;2022-08-19T07:08:40;93834.22;;;26.78;47.28
52105;BME280;38103;42.776;23.112;2022-08-19T07:11:09;93823.38;;;26.78;47.43
52105;BME280;38103;42.776;23.112;2022-08-19T07:13:35;93791.63;;;27.20;46.94
52105;BME280;38103;42.776;23.112;2022-08-19T07:16:18;93830.09;;;27.67;45.59
52105;BME280;38103;42.776;23.112;2022-08-19T07:18:48;93833.22;;;27.82;46.77
52105;BME280;38103;42.776;23.112;2022-08-19T07:21:19;93832.97;;;27.87;45.09
52105;BME280;38103;42.776;23.112;2022-08-19T07:23:45;93783.00;;;27.75;45.23
52105;BME280;38103;42.776;23.112;2022-08-19T07:26:23;93834.63;;;27.63;45.59
52105;BME280;38103;42.776;23.112;2022-08-19T07:28:49;93832.56;;;27.72;46.54
52105;BME280;38103;42.776;23.112;2022-08-19T07:31:18;93835.84;;;27.49;45.01
52105;BME280;38103;42.776;23.112;2022-08-19T07:33:45;93830.78;;;27.64;46.24
52105;BME280;38103;42.776;23.112;2022-08-19T07:36:12;93782.41;;;27.37;45.63
52105;BME280;38103;42.776;23.112;2022-08-19T07:38:40;93832.38;;;28.26;44.46
52105;BME280;38103;42.776;23.112;2022-08-19T07:41:07;93789.81;;;27.69;44.59
52105;BME280;38103;42.776;23.112;2022-08-19T07:43:32;93831.56;;;27.93;44.37
52105;BME280;38103;42.776;23.112;2022-08-19T07:45:58;93832.97;;;27.87;44.45
52105;BME280;38103;42.776;23.112;2022-08-19T07:48:25;93834.38;;;28.13;43.56
52105;BME280;38103;42.776;23.112;2022-08-19T07:50:57;93829.09;;;28.53;47.15
52105;BME280;38103;42.776;23.112;2022-08-19T07:53:23;93839.47;;;28.31;43.53
52105;BME280;38103;42.776;23.112;2022-08-19T07:55:50;93845.06;;;28.71;44.20
52105;BME280;38103;42.776;23.112;2022-08-19T07:58:18;93813.97;;;28.72;42.29
52105;BME280;38103;42.776;23.112;2022-08-19T08:00:46;93833.25;;;29.39;42.13
52105;BME280;38103;42.776;23.112;2022-08-19T08:03:13;93839.78;;;29.74;40.13
52105;BME280;38103;42.776;23.112;2022-08-19T08:05:39;93834.66;;;29.72;39.51
52105;BME280;38103;42.776;23.112;2022-08-19T08:08:23;93828.75;;;29.90;39.18
52105;BME280;38103;42.776;23.112;2022-08-19T08:11:08;93823.88;;;29.99;39.93
52105;BME280;38103;42.776;23.112;2022-08-19T08:13:35;93833.94;;;29.75;38.80
52105;BME280;38103;42.776;23.112;2022-08-19T08:16:02;93833.16;;;29.75;40.16
52105;BME280;38103;42.776;23.112;2022-08-19T08:18:28;93824.94;;;30.18;38.64
52105;BME280;38103;42.776;23.112;2022-08-19T08:20:56;93822.75;;;30.28;38.26
52105;BME280;38103;42.776;23.112;2022-08-19T08:23:22;93817.84;;;29.90;38.08
52105;BME280;38103;42.776;23.112;2022-08-19T08:25:51;93821.84;;;30.43;37.40
52105;BME280;38103;42.776;23.112;2022-08-19T08:28:18;93815.13;;;30.64;36.18
52105;BME280;38103;42.776;23.112;2022-08-19T08:30:45;93815.63;;;31.01;36.16
52105;BME280;38103;42.776;23.112;2022-08-19T08:33:13;93819.88;;;31.29;36.84
52105;BME280;38103;42.776;23.112;2022-08-19T08:35:40;93815.75;;;31.43;37.26
52105;BME280;38103;42.776;23.112;2022-08-19T08:38:07;93818.66;;;31.58;33.43
52105;BME280;38103;42.776;23.112;2022-08-19T08:43:29;93812.81;;;32.01;32.63
52105;BME280;38103;42.776;23.112;2022-08-19T08:46:17;93813.94;;;31.54;32.80
52105;BME280;38103;42.776;23.112;2022-08-19T08:51:42;93808.28;;;31.40;33.38
52105;BME280;38103;42.776;23.112;2022-08-19T08:54:11;93807.56;;;31.43;33.05
52105;BME280;38103;42.776;23.112;2022-08-19T08:56:39;93809.03;;;31.71;33.62
52105;BME280;38103;42.776;23.112;2022-08-19T08:59:24;93815.88;;;31.96;35.86
52105;BME280;38103;42.776;23.112;2022-08-19T09:01:51;93810.22;;;32.12;31.99
52105;BME280;38103;42.776;23.112;2022-08-19T09:04:17;93795.31;;;31.64;30.57
52105;BME280;38103;42.776;23.112;2022-08-19T09:06:51;93804.16;;;31.92;31.59
52105;BME280;38103;42.776;23.112;2022-08-19T09:09:25;93795.69;;;32.08;29.99
52105;BME280;38103;42.776;23.112;2022-08-19T09:16:57;93790.97;;;32.05;29.14
52105;BME280;38103;42.776;23.112;2022-08-19T09:19:22;93796.69;;;31.50;28.87
52105;BME280;38103;42.776;23.112;2022-08-19T09:21:48;93788.44;;;31.43;29.35
52105;BME280;38103;42.776;23.112;2022-08-19T09:24:14;93794.16;;;31.30;27.76
52105;BME280;38103;42.776;23.112;2022-08-19T09:26:40;93794.06;;;31.23;27.38
52105;BME280;38103;42.776;23.112;2022-08-19T09:29:05;93790.09;;;31.17;27.34
52105;BME280;38103;42.776;23.112;2022-08-19T09:31:31;93786.06;;;31.07;28.28
52105;BME280;38103;42.776;23.112;2022-08-19T09:33:58;93785.91;;;31.27;31.40
52105;BME280;38103;42.776;23.112;2022-08-19T09:36:26;93780.91;;;31.32;30.41
52105;BME280;38103;42.776;23.112;2022-08-19T09:38:52;93789.34;;;31.54;29.76
52105;BME280;38103;42.776;23.112;2022-08-19T09:41:23;93777.09;;;31.41;27.25
52105;BME280;38103;42.776;23.112;2022-08-19T09:43:51;93775.84;;;31.34;27.49
52105;BME280;38103;42.776;23.112;2022-08-19T09:46:21;93769.31;;;31.43;26.33
52105;BME280;38103;42.776;23.112;2022-08-19T09:48:49;93776.84;;;31.19;26.41
52105;BME280;38103;42.776;23.112;2022-08-19T09:51:21;93768.91;;;31.06;26.06
52105;BME280;38103;42.776;23.112;2022-08-19T09:53:48;93768.06;;;31.37;28.36
52105;BME280;38103;42.776;23.112;2022-08-19T09:56:19;93759.47;;;31.34;27.94
52105;BME280;38103;42.776;23.112;2022-08-19T09:58:45;93736.81;;;30.96;26.23
52105;BME280;38103;42.776;23.112;2022-08-19T10:01:26;93759.09;;;30.71;28.89
52105;BME280;38103;42.776;23.112;2022-08-19T10:03:54;93759.03;;;30.67;27.62
52105;BME280;38103;42.776;23.112;2022-08-19T10:06:22;93761.72;;;30.36;28.19
52105;BME280;38103;42.776;23.112;2022-08-19T10:08:49;93750.69;;;30.29;29.12
52105;BME280;38103;42.776;23.112;2022-08-19T10:11:15;93757.03;;;30.33;28.35
52105;BME280;38103;42.776;23.112;2022-08-19T10:13:43;93752.56;;;30.48;29.44
52105;BME280;38103;42.776;23.112;2022-08-19T10:16:13;93749.66;;;30.64;29.59
52105;BME280;38103;42.776;23.112;2022-08-19T10:18:38;93755.91;;;30.96;30.61
52105;BME280;38103;42.776;23.112;2022-08-19T10:21:16;93748.97;;;31.02;28.01
52105;BME280;38103;42.776;23.112;2022-08-19T10:23:45;93744.50;;;30.59;28.24
52105;BME280;38103;42.776;23.112;2022-08-19T10:26:16;93742.66;;;30.94;30.11
52105;BME280;38103;42.776;23.112;2022-08-19T10:28:42;93737.53;;;31.27;30.24
52105;BME280;38103;42.776;23.112;2022-08-19T10:31:11;93739.38;;;31.16;28.70
52105;BME280;38103;42.776;23.112;2022-08-19T10:33:38;93736.19;;;31.48;30.27
52105;BME280;38103;42.776;23.112;2022-08-19T10:36:07;93718.81;;;31.64;29.25
52105;BME280;38103;42.776;23.112;2022-08-19T10:38:34;93729.63;;;31.53;27.79
52105;BME280;38103;42.776;23.112;2022-08-19T10:41:12;93732.72;;;31.51;28.53
52105;BME280;38103;42.776;23.112;2022-08-19T10:43:38;93728.22;;;31.70;28.91
52105;BME280;38103;42.776;23.112;2022-08-19T10:46:10;93718.91;;;31.75;27.67
52105;BME280;38103;42.776;23.112;2022-08-19T10:48:36;93729.97;;;31.93;27.82
52105;BME280;38103;42.776;23.112;2022-08-19T10:51:03;93723.66;;;31.85;27.64
52105;BME280;38103;42.776;23.112;2022-08-19T10:53:48;93722.06;;;31.81;28.01
52105;BME280;38103;42.776;23.112;2022-08-19T10:56:13;93678.53;;;31.15;27.99
52105;BME280;38103;42.776;23.112;2022-08-19T10:58:58;93724.28;;;31.64;28.41
52105;BME280;38103;42.776;23.112;2022-08-19T11:01:25;93729.69;;;31.56;26.73
52105;BME280;38103;42.776;23.112;2022-08-19T11:03:51;93717.22;;;31.63;27.33
52105;BME280;38103;42.776;23.112;2022-08-19T11:06:18;93714.88;;;31.61;26.47
52105;BME280;38103;42.776;23.112;2022-08-19T11:08:44;93717.16;;;31.55;27.30
52105;BME280;38103;42.776;23.112;2022-08-19T11:11:11;93709.38;;;31.58;27.47
52105;BME280;38103;42.776;23.112;2022-08-19T11:13:39;93689.91;;;31.63;27.67
52105;BME280;38103;42.776;23.112;2022-08-19T11:16:11;93704.53;;;31.43;26.72
52105;BME280;38103;42.776;23.112;2022-08-19T11:18:41;93701.84;;;31.47;27.72
52105;BME280;38103;42.776;23.112;2022-08-19T11:21:32;93703.53;;;31.21;27.32
52105;BME280;38103;42.776;23.112;2022-08-19T11:23:59;93707.84;;;31.60;28.85
52105;BME280;38103;42.776;23.112;2022-08-19T11:26:26;93698.69;;;31.87;31.22
52105;BME280;38103;42.776;23.112;2022-08-19T11:28:52;93667.91;;;31.97;28.77
52105;BME280;38103;42.776;23.112;2022-08-19T11:31:24;93687.50;;;32.07;27.16
52105;BME280;38103;42.776;23.112;2022-08-19T11:33:50;93690.09;;;31.85;26.40
52105;BME280;38103;42.776;23.112;2022-08-19T11:36:17;93679.28;;;32.07;27.65
52105;BME280;38103;42.776;23.112;2022-08-19T11:38:44;93679.47;;;32.32;29.26
52105;BME280;38103;42.776;23.112;2022-08-19T11:41:09;93652.50;;;32.34;29.01
52105;BME280;38103;42.776;23.112;2022-08-19T11:43:36;93676.47;;;32.63;27.93
52105;BME280;38103;42.776;23.112;2022-08-19T11:46:07;93679.72;;;32.80;27.41
52105;BME280;38103;42.776;23.112;2022-08-19T11:48:34;93668.41;;;32.93;26.90
52105;BME280;38103;42.776;23.112;2022-08-19T11:51:03;93665.25;;;32.83;26.50
52105;BME280;38103;42.776;23.112;2022-08-19T11:53:31;93669.16;;;32.82;25.19
52105;BME280;38103;42.776;23.112;2022-08-19T11:55:57;93634.34;;;32.75;26.26
52105;BME280;38103;42.776;23.112;2022-08-19T11:58:23;93665.69;;;33.00;24.93
52105;BME280;38103;42.776;23.112;2022-08-19T12:00:50;93660.94;;;32.82;25.65
52105;BME280;38103;42.776;23.112;2022-08-19T12:03:15;93653.47;;;32.72;25.86
52105;BME280;38103;42.776;23.112;2022-08-19T12:05:41;93653.94;;;32.92;27.37
52105;BME280;38103;42.776;23.112;2022-08-19T12:08:07;93651.59;;;32.91;25.26
52105;BME280;38103;42.776;23.112;2022-08-19T12:10:34;93643.00;;;32.96;25.30
52105;BME280;38103;42.776;23.112;2022-08-19T12:13:00;93610.09;;;32.74;25.04
52105;BME280;38103;42.776;23.112;2022-08-19T12:15:27;93635.97;;;33.06;24.31
52105;BME280;38103;42.776;23.112;2022-08-19T12:17:56;93636.34;;;33.00;24.83
52105;BME280;38103;42.776;23.112;2022-08-19T12:20:23;93632.06;;;33.03;25.50
52105;BME280;38103;42.776;23.112;2022-08-19T12:22:49;93641.16;;;32.29;24.98
52105;BME280;38103;42.776;23.112;2022-08-19T12:25:14;93634.88;;;32.25;26.40
52105;BME280;38103;42.776;23.112;2022-08-19T12:27:40;93634.63;;;32.52;26.41
52105;BME280;38103;42.776;23.112;2022-08-19T12:30:07;93635.09;;;32.76;26.84
52105;BME280;38103;42.776;23.112;2022-08-19T12:32:33;93632.41;;;32.87;28.29
52105;BME280;38103;42.776;23.112;2022-08-19T12:34:59;93625.78;;;32.95;28.04
52105;BME280;38103;42.776;23.112;2022-08-19T12:37:24;93628.16;;;33.11;26.04
52105;BME280;38103;42.776;23.112;2022-08-19T12:39:49;93632.84;;;33.15;27.08
52105;BME280;38103;42.776;23.112;2022-08-19T12:42:15;93625.81;;;33.14;27.14
52105;BME280;38103;42.776;23.112;2022-08-19T12:44:42;93620.34;;;33.06;27.29
52105;BME280;38103;42.776;23.112;2022-08-19T12:47:09;93617.25;;;33.26;27.70
52105;BME280;38103;42.776;23.112;2022-08-19T12:49:35;93617.59;;;33.14;26.62
52105;BME280;38103;42.776;23.112;2022-08-19T12:52:03;93611.38;;;33.28;25.66
52105;BME280;38103;42.776;23.112;2022-08-19T12:54:29;93605.50;;;33.22;26.80
52105;BME280;38103;42.776;23.112;2022-08-19T12:56:56;93611.00;;;33.29;25.54
52105;BME280;38103;42.776;23.112;2022-08-19T12:59:21;93601.56;;;33.16;24.88
52105;BME280;38103;42.776;23.112;2022-08-19T13:01:47;93597.59;;;32.87;25.87
52105;BME280;38103;42.776;23.112;2022-08-19T13:04:12;93596.81;;;32.87;28.78
52105;BME280;38103;42.776;23.112;2022-08-19T13:06:38;93595.25;;;32.89;26.33